Time;durP1;ratioP1;P1;durP2;ratioP2;P2;SDS_P1;SDS_P2;PMS_P1;PMS_P2;Temp;Humidity;BMP_temperature;BMP_pressure;BME280_temperature;BME280_humidity;BME280_pressure;Samples;Min_cycle;Max_cycle;Signal;HPM_P1;HPM_P2
2022/08/18 00:02:14;;;;;;;45.65;41.17;;;;;;;20.52;75.32;101185.13;6241049;23;20035;-61
2022/08/18 00:04:39;;;;;;;45.38;40.75;;;;;;;20.51;75.49;101191.91;6242500;23;20070;-59
2022/08/18 00:07:07;;;;;;;43.88;39.33;;;;;;;20.51;75.69;101199.53;6242528;23;20012;-59
2022/08/18 00:09:37;;;;;;;47.10;42.30;;;;;;;20.50;75.78;101197.88;6242698;23;20027;-59
2022/08/18 00:12:08;;;;;;;46.33;41.45;;;;;;;20.49;76.11;101208.31;6242672;23;20000;-60
2022/08/18 00:14:33;;;;;;;45.90;41.08;;;;;;;20.51;75.93;101208.81;6244066;23;20035;-59
2022/08/18 00:16:59;;;;;;;45.95;41.25;;;;;;;20.49;76.01;101202.69;6239370;23;20435;-60
2022/08/18 00:19:24;;;;;;;44.88;40.28;;;;;;;20.51;76.07;101208.00;6242820;23;20015;-60
2022/08/18 00:21:49;;;;;;;47.35;41.60;;;;;;;20.49;76.17;101211.13;6242584;23;20042;-59
2022/08/18 00:24:15;;;;;;;45.75;40.90;;;;;;;20.52;76.19;101204.03;6243022;23;20009;-60
2022/08/18 00:26:43;;;;;;;44.53;39.92;;;;;;;20.54;76.15;101204.56;6243385;23;20309;-60
2022/08/18 00:29:08;;;;;;;45.17;40.47;;;;;;;20.53;76.13;101214.16;6243692;23;20050;-61
2022/08/18 00:31:34;;;;;;;44.55;39.72;;;;;;;20.52;76.15;101218.16;6244591;23;20008;-60
2022/08/18 00:33:59;;;;;;;45.38;40.55;;;;;;;20.53;76.30;101214.16;6245519;23;20008;-60
2022/08/18 00:36:25;;;;;;;44.30;39.72;;;;;;;20.52;76.26;101215.31;6244152;23;20016;-60
2022/08/18 00:38:51;;;;;;;45.42;40.72;;;;;;;20.50;76.46;101214.78;6244862;23;20083;-59
2022/08/18 00:41:17;;;;;;;44.20;39.65;;;;;;;20.53;76.22;101217.00;6243836;23;20417;-60
2022/08/18 00:43:44;;;;;;;45.55;40.85;;;;;;;20.50;76.19;101221.25;6244411;23;20000;-60
2022/08/18 00:46:15;;;;;;;45.53;40.78;;;;;;;20.49;76.42;101230.88;6244339;23;20004;-59
2022/08/18 00:48:41;;;;;;;47.85;42.28;;;;;;;20.51;76.33;101233.38;6245146;23;20019;-60
2022/08/18 00:51:11;;;;;;;46.85;41.90;;;;;;;20.47;76.51;101233.13;6244698;23;20321;-60
2022/08/18 00:53:46;;;;;;;43.00;38.33;;;;;;;20.49;76.34;101227.22;6245242;23;20000;-60
2022/08/18 00:56:40;;;;;;;44.05;39.35;;;;;;;20.54;75.82;101222.31;6244000;23;20010;-60
2022/08/18 00:59:19;;;;;;;44.60;39.97;;;;;;;20.47;76.14;101215.38;6244322;23;20471;-60
2022/08/18 01:01:51;;;;;;;42.90;38.35;;;;;;;20.43;76.18;101211.50;6244590;23;20011;-59
2022/08/18 01:04:33;;;;;;;42.90;38.40;;;;;;;20.47;75.80;101215.38;6244483;23;20008;-60
2022/08/18 01:07:09;;;;;;;42.03;37.65;;;;;;;20.42;75.88;101221.94;6245236;23;20238;-60
2022/08/18 01:09:35;;;;;;;41.70;37.22;;;;;;;20.43;75.76;101215.16;6244363;23;20004;-60
2022/08/18 01:12:03;;;;;;;41.45;37.40;;;;;;;20.39;75.85;101224.53;6243468;23;20030;-60
2022/08/18 01:14:28;;;;;;;42.35;37.92;;;;;;;20.33;76.04;101213.38;6244441;23;20439;-60
2022/08/18 01:22:42;;;;;;;42.03;37.83;;;;;;;20.39;75.43;101211.28;6244453;23;20019;-60
2022/08/18 01:27:55;;;;;;;40.60;36.42;;;;;;;20.30;75.71;101199.91;6244395;23;20019;-60
2022/08/18 01:30:24;;;;;;;41.58;37.17;;;;;;;20.30;75.68;101205.53;6244224;23;20385;-60
2022/08/18 01:32:51;;;;;;;41.13;36.47;;;;;;;20.30;75.55;101210.34;6243952;23;20039;-60
2022/08/18 01:35:18;;;;;;;39.80;35.75;;;;;;;20.31;75.20;101212.00;6244479;23;20077;-60
2022/08/18 01:37:43;;;;;;;39.53;35.22;;;;;;;20.27;75.45;101206.13;6244571;23;20008;-60
2022/08/18 01:40:11;;;;;;;40.10;35.83;;;;;;;20.21;75.72;101212.19;6241938;23;20011;-60
2022/08/18 01:42:43;;;;;;;40.58;36.20;;;;;;;20.18;75.55;101210.84;6244624;23;20004;-60
2022/08/18 01:45:09;;;;;;;40.92;36.78;;;;;;;20.18;75.40;101213.66;6244329;23;20004;-60
2022/08/18 01:47:35;;;;;;;38.85;34.67;;;;;;;20.13;75.76;101216.56;6242149;23;20005;-60
2022/08/18 01:50:05;;;;;;;39.80;35.58;;;;;;;20.17;75.47;101206.34;6244473;23;20004;-60
2022/08/18 01:52:30;;;;;;;38.03;33.92;;;;;;;20.15;75.46;101202.97;6244193;23;20004;-60
2022/08/18 01:54:58;;;;;;;38.10;34.08;;;;;;;20.15;75.41;101200.16;6243364;23;20421;-60
2022/08/18 01:57:24;;;;;;;39.95;35.78;;;;;;;20.14;75.59;101198.50;6244294;23;20004;-60
2022/08/18 01:59:50;;;;;;;39.17;34.25;;;;;;;20.13;75.31;101202.47;6244026;23;20004;-60
2022/08/18 02:02:23;;;;;;;35.90;32.30;;;;;;;20.16;75.30;101199.03;6243262;23;20008;-60
2022/08/18 02:04:51;;;;;;;37.22;33.25;;;;;;;20.12;75.32;101200.78;6242774;23;20023;-60
2022/08/18 02:07:16;;;;;;;36.38;32.63;;;;;;;20.13;75.07;101205.28;6243797;23;20014;-60
2022/08/18 02:09:42;;;;;;;38.22;33.83;;;;;;;20.09;75.14;101187.34;6243558;23;20078;-60
2022/08/18 02:12:08;;;;;;;38.22;34.15;;;;;;;20.05;75.26;101189.94;6243898;23;20035;-59
2022/08/18 02:14:34;;;;;;;37.08;33.30;;;;;;;20.00;75.42;101198.47;6242932;23;20011;-59
2022/08/18 02:17:01;;;;;;;37.33;33.42;;;;;;;20.03;75.40;101205.47;6242943;23;20091;-60
2022/08/18 02:19:26;;;;;;;38.90;34.30;;;;;;;19.99;75.30;101193.13;6243539;23;20008;-61
2022/08/18 02:21:52;;;;;;;36.90;32.97;;;;;;;19.98;75.30;101197.94;6242203;23;20443;-61
2022/08/18 02:24:17;;;;;;;37.15;33.33;;;;;;;19.98;75.25;101200.75;6242853;23;20047;-60
2022/08/18 02:26:43;;;;;;;38.22;34.20;;;;;;;19.96;75.09;101203.03;6244005;23;20070;-61
2022/08/18 02:29:08;;;;;;;37.92;33.83;;;;;;;19.92;75.46;101201.97;6241815;23;20077;-61
2022/08/18 02:31:34;;;;;;;38.20;33.10;;;;;;;19.94;75.18;101212.94;6243328;23;20784;-61
2022/08/18 02:33:59;;;;;;;36.17;32.47;;;;;;;19.91;75.05;101207.94;6243909;23;19999;-61
2022/08/18 02:36:25;;;;;;;35.35;31.55;;;;;;;19.92;74.90;101203.97;6243397;23;20432;-60
2022/08/18 02:38:50;;;;;;;36.00;32.15;;;;;;;19.88;75.09;101215.00;6243244;23;20004;-61
2022/08/18 02:41:15;;;;;;;36.22;32.35;;;;;;;19.85;75.03;101208.03;6242598;23;20049;-61
2022/08/18 02:43:41;;;;;;;35.28;31.83;;;;;;;19.86;74.95;101220.94;6243542;23;20000;-61
2022/08/18 02:46:07;;;;;;;37.55;33.30;;;;;;;19.84;75.06;101222.41;6243564;23;20424;-61
2022/08/18 02:48:35;;;;;;;35.17;31.63;;;;;;;19.81;75.03;101220.22;6244564;23;20372;-61
2022/08/18 02:51:08;;;;;;;35.08;31.08;;;;;;;19.80;75.05;101226.97;6242080;23;20008;-60
2022/08/18 02:53:34;;;;;;;37.67;33.75;;;;;;;19.77;75.17;101222.81;6244054;23;20328;-61
2022/08/18 02:56:17;;;;;;;34.53;30.88;;;;;;;19.80;74.98;101218.50;6243815;23;20087;-60
2022/08/18 02:58:42;;;;;;;34.85;30.95;;;;;;;19.77;74.78;101225.63;6241572;23;20331;-61
2022/08/18 03:01:07;;;;;;;35.75;32.05;;;;;;;19.78;74.87;101213.19;6243702;23;20011;-61
2022/08/18 03:03:36;;;;;;;35.30;31.52;;;;;;;19.74;74.82;101214.97;6242616;23;20046;-61
2022/08/18 03:06:01;;;;;;;35.75;31.88;;;;;;;19.70;75.11;101208.25;6243179;23;20011;-61
2022/08/18 03:08:27;;;;;;;35.58;31.98;;;;;;;19.70;75.04;101213.06;6243831;23;20004;-60
2022/08/18 03:10:53;;;;;;;36.50;32.58;;;;;;;19.71;74.79;101214.72;6242887;23;20011;-61
2022/08/18 03:13:19;;;;;;;35.10;31.30;;;;;;;19.70;74.72;101221.50;6241573;23;20062;-60
2022/08/18 03:15:45;;;;;;;36.50;31.00;;;;;;;19.71;74.68;101209.09;6243787;23;20027;-61
2022/08/18 03:18:12;;;;;;;35.15;31.45;;;;;;;19.64;74.72;101219.91;6242393;23;20466;-60
2022/08/18 03:20:38;;;;;;;32.88;29.33;;;;;;;19.65;74.63;101218.75;6244120;23;20004;-61
2022/08/18 03:23:04;;;;;;;35.70;32.00;;;;;;;19.60;74.82;101226.09;6242383;23;20363;-61
2022/08/18 03:25:32;;;;;;;35.97;32.20;;;;;;;19.56;74.91;101224.22;6242947;23;20087;-61
2022/08/18 03:27:57;;;;;;;34.22;30.83;;;;;;;19.59;74.80;101227.25;6243271;23;20073;-61
2022/08/18 03:30:22;;;;;;;33.22;29.95;;;;;;;19.58;74.78;101230.38;6243058;23;20016;-60
2022/08/18 03:32:51;;;;;;;35.88;30.27;;;;;;;19.57;74.74;101237.13;6242224;23;20413;-61
2022/08/18 03:35:16;;;;;;;35.28;29.00;;;;;;;19.53;74.46;101230.44;6242983;23;20486;-61
2022/08/18 03:37:42;;;;;;;33.22;29.65;;;;;;;19.55;74.31;101233.81;6243023;23;20004;-61
2022/08/18 03:40:10;;;;;;;37.42;33.47;;;;;;;19.52;74.74;101229.63;6242274;23;20054;-60
2022/08/18 03:42:37;;;;;;;34.78;31.02;;;;;;;19.52;74.98;101237.22;6243495;23;20012;-60
2022/08/18 03:45:04;;;;;;;35.10;31.33;;;;;;;19.52;74.71;101240.03;6242952;23;20008;-60
2022/08/18 03:47:30;;;;;;;37.97;33.17;;;;;;;19.51;74.85;101232.75;6241888;23;20004;-60
2022/08/18 03:49:55;;;;;;;34.40;30.85;;;;;;;19.49;74.56;101232.19;6243680;23;20019;-60
2022/08/18 03:52:22;;;;;;;32.08;28.80;;;;;;;19.49;74.58;101238.69;6243274;23;20081;-60
2022/08/18 03:54:50;;;;;;;33.85;30.50;;;;;;;19.50;74.62;101234.72;6241514;23;19996;-60
2022/08/18 03:57:15;;;;;;;34.42;30.73;;;;;;;19.45;74.41;101239.56;6243490;23;20020;-60
2022/08/18 03:59:42;;;;;;;33.97;30.67;;;;;;;19.44;74.34;101233.13;6243409;23;20418;-60
2022/08/18 04:02:08;;;;;;;34.17;30.73;;;;;;;19.45;74.52;101223.50;6242424;23;20004;-59
2022/08/18 04:04:34;;;;;;;32.42;29.33;;;;;;;19.49;74.65;101232.19;6244436;23;20375;-60
2022/08/18 04:07:06;;;;;;;34.10;30.67;;;;;;;19.44;74.80;101233.13;6244496;23;20004;-59
2022/08/18 04:09:33;;;;;;;34.30;30.75;;;;;;;19.46;75.07;101225.22;6244448;23;20012;-60
2022/08/18 04:12:10;;;;;;;35.95;32.45;;;;;;;19.43;75.31;101231.44;6244537;23;20008;-60
2022/08/18 04:14:36;;;;;;;35.83;32.03;;;;;;;19.44;75.33;101223.84;6244760;23;20523;-60
2022/08/18 04:17:02;;;;;;;36.40;32.92;;;;;;;19.43;75.48;101224.97;6244270;23;20130;-60
2022/08/18 04:19:27;;;;;;;35.75;32.17;;;;;;;19.47;75.61;101223.22;6245548;23;20066;-60
2022/08/18 04:21:54;;;;;;;37.13;33.15;;;;;;;19.45;75.60;101231.97;6244095;23;20005;-60
2022/08/18 04:24:20;;;;;;;39.25;35.22;;;;;;;19.47;75.77;101232.50;6245627;23;20004;-60
2022/08/18 04:26:47;;;;;;;39.67;34.88;;;;;;;19.42;75.81;101228.94;6244217;23;20087;-60
2022/08/18 04:29:15;;;;;;;40.08;35.75;;;;;;;19.50;75.63;101231.09;6244669;23;20746;-60
2022/08/18 04:31:41;;;;;;;41.60;35.88;;;;;;;19.48;75.98;101233.34;6245533;23;20083;-60
2022/08/18 04:34:06;;;;;;;41.70;37.20;;;;;;;19.45;76.09;101233.94;6245611;23;20373;-60
2022/08/18 04:36:33;;;;;;;42.60;37.08;;;;;;;19.53;75.72;101227.63;6244063;23;20091;-60
2022/08/18 04:38:59;;;;;;;45.13;37.17;;;;;;;19.49;76.17;101235.88;6245255;23;20409;-60
2022/08/18 04:41:26;;;;;;;42.80;37.00;;;;;;;19.52;75.95;101237.22;6244902;23;20010;-60
2022/08/18 04:44:02;;;;;;;42.42;37.97;;;;;;;19.49;75.96;101233.06;6243495;23;20447;-60
2022/08/18 04:46:29;;;;;;;43.42;38.05;;;;;;;19.50;75.89;101233.91;6245205;23;20416;-59
2022/08/18 04:49:00;;;;;;;41.55;37.08;;;;;;;19.49;76.02;101243.47;6243998;23;20000;-60
2022/08/18 04:51:28;;;;;;;44.88;39.97;;;;;;;19.47;76.06;101243.78;6244150;23;20008;-59
2022/08/18 04:53:55;;;;;;;50.20;40.53;;;;;;;19.48;76.14;101247.41;6245199;23;20008;-60
2022/08/18 04:56:25;;;;;;;41.42;36.88;;;;;;;19.54;75.82;101254.66;6245085;23;20035;-60
2022/08/18 04:58:53;;;;;;;42.90;37.60;;;;;;;19.49;75.88;101264.03;6243714;23;20004;-60
2022/08/18 05:01:24;;;;;;;42.45;37.60;;;;;;;19.49;76.02;101252.78;6243938;23;20008;-59
2022/08/18 05:03:50;;;;;;;43.47;37.15;;;;;;;19.48;76.14;101245.44;6243456;23;20004;-59
2022/08/18 05:06:17;;;;;;;42.17;37.15;;;;;;;19.52;75.59;101246.50;6242685;23;20015;-59
2022/08/18 05:08:42;;;;;;;40.88;36.65;;;;;;;19.50;75.64;101245.16;6244044;23;20019;-59
2022/08/18 05:11:08;;;;;;;40.75;36.45;;;;;;;19.47;75.91;101254.19;6241326;23;20008;-59
2022/08/18 05:13:34;;;;;;;41.67;37.22;;;;;;;19.44;75.78;101254.81;6243928;23;20008;-59
2022/08/18 05:16:02;;;;;;;42.08;36.53;;;;;;;19.43;75.92;101264.41;6243720;23;20026;-59
2022/08/18 05:18:32;;;;;;;43.53;37.83;;;;;;;19.39;75.93;101272.59;6241053;23;20058;-60
2022/08/18 05:20:59;;;;;;;41.45;36.28;;;;;;;19.36;75.97;101276.00;6241984;23;20007;-61
2022/08/18 05:23:25;;;;;;;42.38;36.05;;;;;;;19.37;76.21;101272.91;6241989;23;20004;-58
2022/08/18 05:25:59;;;;;;;33.08;27.80;;;;;;;19.51;75.69;101266.53;6242166;23;20364;-58
2022/08/18 05:28:25;;;;;;;20.88;18.58;;;;;;;19.62;75.12;101262.47;6242424;23;20008;-60
2022/08/18 05:30:51;;;;;;;20.60;18.40;;;;;;;19.70;75.18;101256.16;6243144;23;20082;-58
2022/08/18 05:34:11;;;;;;;;;;;;;;;;;;;;;
2022/08/18 05:37:13;;;;;;;25.55;22.92;;;;;;;19.85;74.35;101270.00;6227982;23;20504;-61
2022/08/18 06:16:05;;;;;;;40.03;33.70;;;;;;;20.09;73.56;101266.22;6133471;23;20017;-64
2022/08/18 06:19:10;;;;;;;29.40;25.60;;;;;;;20.12;73.66;101268.41;6032390;23;20011;-63
2022/08/18 06:22:36;;;;;;;28.15;25.23;;;;;;;20.22;73.61;101279.53;6014161;23;20008;-63
2022/08/18 06:29:49;;;;;;;36.20;30.75;;;;;;;20.24;73.57;101273.56;6177389;23;20204;-64
2022/08/18 06:35:53;;;;;;;33.63;26.42;;;;;;;20.27;73.60;101296.34;6034516;23;20047;-65
2022/08/18 06:39:12;;;;;;;;;;;;;;;;;;;;;
2022/08/18 06:45:50;;;;;;;29.35;23.63;;;;;;;20.31;73.16;101294.59;6190372;23;20171;-64
2022/08/18 06:49:36;;;;;;;27.60;24.08;;;;;;;20.38;73.22;101288.56;6145336;23;20013;-64
2022/08/18 06:52:26;;;;;;;39.72;33.58;;;;;;;20.30;73.83;101294.91;5928070;23;20045;-64
2022/08/18 06:55:27;;;;;;;;;;;;;;;;;;;;;
2022/08/18 06:58:38;;;;;;;30.27;26.70;;;;;;;20.33;73.74;101303.59;6020761;23;20154;-66
2022/08/18 07:01:52;;;;;;;39.25;31.27;;;;;;;20.37;73.58;101306.63;6024412;23;20007;-66
2022/08/18 07:08:41;;;;;;;29.02;25.10;;;;;;;20.53;73.61;101310.06;5949230;24;20018;-65
2022/08/18 07:12:22;;;;;;;25.70;22.65;;;;;;;20.58;73.22;101309.94;6088519;23;20021;-65
2022/08/18 07:15:54;;;;;;;;;;;;;;;;;;;;;
2022/08/18 07:18:53;;;;;;;;;;;;;;;;;;;;;
2022/08/18 07:22:16;;;;;;;24.13;21.52;;;;;;;20.70;73.11;101310.28;6097421;23;20482;-63
2022/08/18 07:25:25;;;;;;;23.02;20.02;;;;;;;20.90;72.79;101302.59;6075617;23;20013;-64
2022/08/18 07:39:24;;;;;;;21.60;17.70;;;;;;;21.12;71.92;101311.19;6208033;23;20051;-65
2022/08/18 07:46:02;;;;;;;21.02;18.83;;;;;;;21.16;71.86;101317.88;6157958;23;20010;-67
2022/08/18 07:49:07;;;;;;;20.40;17.90;;;;;;;21.23;71.93;101312.66;6208767;23;20329;-65
2022/08/18 07:55:34;;;;;;;18.15;16.08;;;;;;;21.41;71.01;101310.03;6207494;23;20072;-64
2022/08/18 08:05:53;;;;;;;;;;;;;;;;;;;;;
2022/08/18 08:09:03;;;;;;;15.65;14.02;;;;;;;21.62;69.76;101314.13;6097805;23;20330;-63
2022/08/18 08:12:22;;;;;;;15.75;14.25;;;;;;;21.62;69.89;101307.63;6146472;23;20076;-67
2022/08/18 08:18:37;;;;;;;20.52;18.38;;;;;;;21.67;69.56;101311.16;6033533;23;20019;-64
2022/08/18 08:25:28;;;;;;;17.35;14.32;;;;;;;21.79;69.71;101322.75;6014131;23;20054;-63
2022/08/18 08:31:36;;;;;;;21.50;19.23;;;;;;;21.58;70.51;101326.38;6152304;23;20024;-64
2022/08/18 08:35:09;;;;;;;15.52;12.15;;;;;;;21.62;70.00;101322.59;6156964;23;20108;-64
2022/08/18 08:41:49;;;;;;;13.50;11.82;;;;;;;21.73;69.72;101324.03;6210902;23;20023;-63
2022/08/18 08:44:39;;;;;;;16.75;11.77;;;;;;;21.75;69.50;101324.53;6179256;23;20463;-63
2022/08/18 08:52:05;;;;;;;;;;;;;;;;;;;;;
2022/08/18 08:55:31;;;;;;;12.98;11.70;;;;;;;21.72;69.59;101335.63;6080919;23;20739;-64
2022/08/18 08:58:27;;;;;;;12.13;10.98;;;;;;;21.75;69.40;101344.31;6117539;23;20104;-63
2022/08/18 09:05:50;;;;;;;10.52;9.43;;;;;;;21.71;69.28;101319.84;6071095;23;20462;-63
2022/08/18 09:08:43;;;;;;;14.15;12.25;;;;;;;21.73;69.73;101329.69;5986065;23;20015;-63
2022/08/18 09:11:38;;;;;;;11.55;9.93;;;;;;;21.96;69.05;101335.38;6060872;23;20011;-64
2022/08/18 09:14:48;;;;;;;11.70;10.60;;;;;;;22.00;68.74;101331.56;6060851;23;20102;-63
2022/08/18 09:25:57;;;;;;;;;;;;;;;;;;;;;
2022/08/18 09:29:11;;;;;;;10.25;9.18;;;;;;;22.12;68.35;101336.66;6209460;23;20468;-62
2022/08/18 09:32:21;;;;;;;11.13;9.10;;;;;;;22.36;67.44;101332.72;6112017;23;20343;-62
2022/08/18 09:35:43;;;;;;;10.68;8.35;;;;;;;22.54;66.83;101328.88;6173871;23;20036;-61
2022/08/18 09:42:14;;;;;;;14.05;11.95;;;;;;;22.80;66.83;101326.22;6211183;23;20573;-62
2022/08/18 09:46:20;;;;;;;;;;;;;;;;;;;;;
2022/08/18 09:57:03;;;;;;;;;;;;;;;;;;;;;
2022/08/18 10:07:16;;;;;;;;;;;;;;;;;;;;;
2022/08/18 10:20:59;;;;;;;9.80;8.80;;;;;;;22.88;64.58;101311.28;6197812;23;20020;-64
2022/08/18 10:24:09;;;;;;;8.50;7.70;;;;;;;23.02;63.86;101316.84;6130619;23;20013;-64
2022/08/18 10:34:20;;;;;;;9.57;8.63;;;;;;;23.35;63.34;101299.50;6118500;23;20053;-65
2022/08/18 10:37:34;;;;;;;8.38;6.78;;;;;;;23.41;63.20;101298.19;6132911;23;20038;-64
2022/08/18 10:40:21;;;;;;;9.38;8.38;;;;;;;23.39;63.02;101309.03;6209844;23;20142;-61
2022/08/18 10:43:07;;;;;;;8.80;7.47;;;;;;;23.31;62.12;101302.16;6209493;23;20016;-61
2022/08/18 10:45:38;;;;;;;7.57;6.88;;;;;;;23.22;62.21;101301.28;6209632;23;20409;-61
2022/08/18 10:48:03;;;;;;;6.28;5.65;;;;;;;23.23;63.01;101302.97;6211354;23;20024;-63
2022/08/18 10:50:50;;;;;;;9.23;8.32;;;;;;;23.14;63.00;101300.09;6208879;23;20623;-61
2022/08/18 10:53:26;;;;;;;8.85;7.55;;;;;;;23.10;63.02;101313.22;6207283;23;20149;-60
2022/08/18 10:56:03;;;;;;;7.07;6.20;;;;;;;23.11;63.42;101314.91;6211179;23;20008;-61
2022/08/18 10:58:53;;;;;;;8.15;7.07;;;;;;;23.08;63.54;101311.91;6207771;23;20023;-61
2022/08/18 11:01:42;;;;;;;8.93;8.02;;;;;;;23.05;63.54;101310.56;6210513;23;20086;-61
2022/08/18 11:04:12;;;;;;;9.07;8.23;;;;;;;23.00;63.42;101308.69;6207518;23;20360;-61
2022/08/18 11:06:40;;;;;;;12.55;10.07;;;;;;;22.93;63.07;101313.16;6210162;23;20004;-61
2022/08/18 11:09:08;;;;;;;11.32;9.40;;;;;;;22.91;63.87;101310.66;6209550;23;20000;-62
2022/08/18 11:11:41;;;;;;;9.15;8.20;;;;;;;22.91;63.28;101306.97;6207145;23;20126;-61
2022/08/18 11:14:41;;;;;;;7.25;6.55;;;;;;;22.98;63.33;101305.34;6210554;23;20032;-62
2022/08/18 11:17:32;;;;;;;8.90;7.30;;;;;;;23.00;63.35;101300.22;6209670;23;20009;-61
2022/08/18 11:20:00;;;;;;;10.15;7.75;;;;;;;23.07;62.32;101302.56;6210464;23;20023;-61
2022/08/18 11:22:31;;;;;;;10.23;9.23;;;;;;;23.07;62.76;101291.25;6206626;23;20080;-61
2022/08/18 11:24:57;;;;;;;11.33;10.27;;;;;;;23.17;62.40;101284.44;6207859;23;20005;-62
2022/08/18 11:27:36;;;;;;;12.75;9.80;;;;;;;23.29;62.36;101278.97;6208113;23;20012;-62
2022/08/18 11:30:05;;;;;;;11.05;9.85;;;;;;;23.30;61.81;101276.97;6209753;23;20036;-62
2022/08/18 11:32:37;;;;;;;10.45;9.48;;;;;;;23.33;62.65;101282.00;6208708;23;20035;-61
2022/08/18 11:35:14;;;;;;;9.43;8.35;;;;;;;23.35;62.32;101274.00;6210153;23;20579;-62
2022/08/18 11:37:59;;;;;;;9.27;8.25;;;;;;;23.39;62.39;101281.53;6208849;23;20009;-62
2022/08/18 11:40:37;;;;;;;10.07;8.52;;;;;;;23.39;62.41;101275.03;6210420;23;20007;-62
2022/08/18 11:43:08;;;;;;;10.63;9.68;;;;;;;23.44;61.80;101272.03;6211013;23;20083;-61
2022/08/18 11:45:59;;;;;;;12.52;10.88;;;;;;;23.47;61.96;101266.53;6209736;23;20115;-61
2022/08/18 11:48:27;;;;;;;11.98;10.18;;;;;;;23.48;61.10;101256.03;6180612;23;20019;-61
2022/08/18 11:50:52;;;;;;;11.07;7.93;;;;;;;23.50;61.54;101254.56;6212087;23;20011;-62
2022/08/18 11:53:22;;;;;;;8.97;8.20;;;;;;;23.58;61.20;101264.22;6210358;23;20001;-61
2022/08/18 11:56:03;;;;;;;9.45;8.45;;;;;;;23.62;61.19;101255.88;6212150;23;20244;-61
2022/08/18 11:58:44;;;;;;;9.38;8.48;;;;;;;23.73;61.57;101245.91;6208903;23;20024;-61
2022/08/18 12:01:30;;;;;;;12.85;10.00;;;;;;;23.79;61.08;101244.59;6210665;23;20009;-62
2022/08/18 12:03:58;;;;;;;10.52;9.20;;;;;;;23.90;60.87;101239.44;6212072;23;20062;-61
2022/08/18 12:06:28;;;;;;;10.98;9.88;;;;;;;23.84;59.19;101241.59;6209440;23;20066;-62
2022/08/18 12:09:15;;;;;;;9.68;7.32;;;;;;;23.89;59.33;101244.25;6210416;23;20416;-61
2022/08/18 12:11:54;;;;;;;12.30;9.05;;;;;;;23.88;60.26;101250.25;6209005;23;20015;-60
2022/08/18 12:14:24;;;;;;;10.52;9.52;;;;;;;23.89;59.51;101251.91;6210216;23;20009;-61
2022/08/18 12:16:50;;;;;;;12.20;10.15;;;;;;;23.87;59.96;101249.44;6211275;23;20009;-61
2022/08/18 12:19:16;;;;;;;10.10;9.07;;;;;;;23.83;59.46;101248.44;6210872;23;20007;-62
2022/08/18 12:21:50;;;;;;;8.65;7.85;;;;;;;23.83;60.08;101251.25;6211035;23;20005;-61
2022/08/18 12:24:25;;;;;;;10.30;8.75;;;;;;;23.73;59.49;101246.75;6211799;23;20007;-60
2022/08/18 12:26:51;;;;;;;10.38;9.38;;;;;;;23.69;59.70;101245.75;6212708;23;20015;-61
2022/08/18 12:29:17;;;;;;;9.13;8.30;;;;;;;23.76;60.54;101242.41;6211942;23;20091;-61
2022/08/18 12:31:51;;;;;;;11.98;7.65;;;;;;;23.83;59.28;101245.59;6211813;23;20316;-62
2022/08/18 12:34:18;;;;;;;11.70;9.00;;;;;;;23.86;58.98;101258.28;6211863;23;20005;-61
2022/08/18 12:36:44;;;;;;;9.70;7.85;;;;;;;23.89;59.83;101261.25;6212677;23;20000;-61
2022/08/18 12:39:09;;;;;;;10.45;9.45;;;;;;;23.91;58.82;101258.09;6212800;23;20041;-61
2022/08/18 12:41:35;;;;;;;8.90;7.50;;;;;;;23.95;58.85;101259.94;6211304;23;20012;-61
2022/08/18 12:44:00;;;;;;;9.98;8.75;;;;;;;23.96;58.62;101255.09;6212545;23;20015;-61
2022/08/18 12:46:26;;;;;;;10.70;9.32;;;;;;;24.03;59.32;101261.09;6211568;23;20009;-61
2022/08/18 12:48:51;;;;;;;9.55;8.65;;;;;;;24.09;58.89;101259.78;6212540;23;20091;-61
2022/08/18 12:51:17;;;;;;;8.63;7.53;;;;;;;24.10;58.81;101260.59;6210134;23;20005;-62
2022/08/18 12:53:42;;;;;;;9.40;8.02;;;;;;;24.11;58.71;101259.44;6210737;23;20066;-61
2022/08/18 12:56:29;;;;;;;7.25;6.55;;;;;;;24.15;58.87;101264.09;6211118;23;20004;-61
2022/08/18 12:58:55;;;;;;;7.72;6.88;;;;;;;24.14;57.50;101253.91;6209874;23;20055;-62
2022/08/18 13:01:20;;;;;;;9.20;6.85;;;;;;;24.14;57.19;101262.44;6212095;23;20087;-62
2022/08/18 13:03:47;;;;;;;8.77;7.60;;;;;;;24.14;56.39;101267.28;6208554;23;20272;-61
2022/08/18 13:06:13;;;;;;;8.27;7.03;;;;;;;24.16;56.24;101276.25;6208194;23;20019;-60
2022/08/18 13:08:39;;;;;;;7.28;6.57;;;;;;;24.23;56.87;101282.28;6212109;23;20019;-61
2022/08/18 13:11:09;;;;;;;7.53;6.70;;;;;;;24.28;56.67;101281.25;6209805;23;20028;-61
2022/08/18 13:13:36;;;;;;;6.82;6.22;;;;;;;24.28;55.96;101286.94;6212028;23;20011;-61
2022/08/18 13:16:01;;;;;;;7.88;5.88;;;;;;;24.28;54.51;101273.56;6211476;23;20071;-62
2022/08/18 13:18:27;;;;;;;6.65;5.95;;;;;;;24.25;54.87;101286.44;6211944;23;20445;-61
2022/08/18 13:20:53;;;;;;;7.55;6.70;;;;;;;24.24;53.81;101281.91;6213408;23;20013;-60
2022/08/18 13:23:18;;;;;;;6.22;5.68;;;;;;;24.30;54.04;101274.09;6210130;23;20340;-61
2022/08/18 13:25:43;;;;;;;6.45;5.72;;;;;;;24.39;54.00;101274.09;6211962;23;20008;-60
2022/08/18 13:28:09;;;;;;;6.53;5.93;;;;;;;24.42;54.38;101268.59;6209956;23;20089;-61
2022/08/18 13:30:35;;;;;;;6.60;6.00;;;;;;;24.49;55.08;101282.28;6208786;23;20491;-61
2022/08/18 13:33:00;;;;;;;6.88;6.20;;;;;;;24.49;54.89;101279.44;6212331;23;20008;-61
2022/08/18 13:35:26;;;;;;;6.85;6.25;;;;;;;24.50;54.62;101281.09;6210555;23;20083;-60
2022/08/18 13:37:54;;;;;;;7.05;6.45;;;;;;;24.48;54.64;101277.75;6210987;23;20012;-61
2022/08/18 13:40:20;;;;;;;7.82;6.72;;;;;;;24.45;54.67;101273.59;6208100;23;20095;-60
2022/08/18 13:42:47;;;;;;;8.70;6.28;;;;;;;24.42;54.17;101270.59;6210788;23;20667;-62
2022/08/18 13:45:15;;;;;;;6.80;5.50;;;;;;;24.37;53.42;101262.22;6208760;23;20005;-62
2022/08/18 13:47:41;;;;;;;7.75;6.45;;;;;;;24.37;53.71;101248.88;6211649;23;20000;-61
2022/08/18 13:50:07;;;;;;;7.07;6.50;;;;;;;24.44;53.81;101252.06;6211948;23;20085;-61
2022/08/18 13:52:32;;;;;;;6.88;6.18;;;;;;;24.40;54.07;101251.06;6209988;23;20487;-60
2022/08/18 13:54:57;;;;;;;8.13;6.68;;;;;;;24.40;54.72;101248.22;6210013;23;20001;-62
2022/08/18 13:57:23;;;;;;;7.03;6.43;;;;;;;24.43;54.29;101241.03;6209576;23;20062;-61
2022/08/18 13:59:48;;;;;;;7.32;6.72;;;;;;;24.49;54.53;101236.88;6207882;23;20100;-61
2022/08/18 14:02:13;;;;;;;7.47;6.75;;;;;;;24.52;55.78;101243.84;6211303;23;20052;-61
2022/08/18 14:04:39;;;;;;;7.35;6.72;;;;;;;24.55;55.26;101241.16;6210927;23;20079;-61
2022/08/18 14:07:08;;;;;;;7.80;7.10;;;;;;;24.53;55.05;101240.69;6210659;23;20476;-62
2022/08/18 14:09:34;;;;;;;7.32;6.70;;;;;;;24.57;56.00;101238.84;6209929;23;20001;-61
2022/08/18 14:12:02;;;;;;;7.30;6.60;;;;;;;24.65;55.76;101235.13;6211066;23;20087;-61
2022/08/18 14:14:27;;;;;;;7.50;6.80;;;;;;;24.64;56.07;101224.09;6208941;23;20000;-61
2022/08/18 14:16:53;;;;;;;7.45;6.70;;;;;;;24.64;55.57;101224.97;6212617;23;20104;-61
2022/08/18 14:27:37;;;;;;;8.07;7.10;;;;;;;24.83;55.24;101209.50;6208668;23;20020;-61
2022/08/18 14:30:10;;;;;;;7.97;7.05;;;;;;;24.86;55.49;101191.78;6208725;23;20017;-59
2022/08/18 14:32:37;;;;;;;7.85;7.05;;;;;;;24.83;54.77;101190.47;6210056;23;20032;-61
2022/08/18 14:35:05;;;;;;;7.82;7.00;;;;;;;24.86;54.30;101194.63;6205581;23;20051;-60
2022/08/18 14:37:30;;;;;;;6.40;5.72;;;;;;;24.89;53.91;101191.13;6210781;23;20009;-60
2022/08/18 14:39:56;;;;;;;6.22;5.65;;;;;;;24.85;52.70;101192.97;6210937;23;20476;-62
2022/08/18 14:42:22;;;;;;;7.53;6.15;;;;;;;24.77;53.35;101189.00;6210225;23;20328;-61
2022/08/18 14:44:47;;;;;;;5.97;5.47;;;;;;;24.67;52.85;101195.06;6209827;23;19996;-61
2022/08/18 14:47:13;;;;;;;6.43;5.80;;;;;;;24.63;53.87;101194.06;6210899;23;20011;-60
2022/08/18 14:49:39;;;;;;;6.75;6.13;;;;;;;24.58;54.02;101197.09;6210353;23;20871;-61
2022/08/18 14:52:05;;;;;;;7.38;5.30;;;;;;;24.57;53.64;101207.63;6209755;23;20013;-60